ADDS METAR Data INFO
IDs: Format: Raw Decoded Include TAF

Data at: 2020 UTC 16 Dec 2017

PHNY 161956Z AUTO 17006KT 10SM BKN013 OVC028 20/17 A2992 RMK AO2 SLP117 P0001 T02000172
PHNY 161934Z AUTO 16004KT 10SM FEW009 BKN016 OVC034 19/17 A2992 RMK AO2 P0001
PHNY 161923Z AUTO 19005KT 10SM BKN013 BKN026 BKN034 19/17 A2993 RMK AO2 P0001
PHNY 161856Z AUTO VRB03KT 10SM FEW011 19/17 A2992 RMK AO2 SLP119 P0002 T01890167
PHNY 161756Z AUTO 06004KT 10SM FEW002 16/16 A2990 RMK AO2 SLP116 P0003 60008 T01610156 10172 20161 53011
PHNY 161656Z AUTO 31003KT 10SM CLR 17/16 A2989 RMK AO2 SLP109 P0001 T01670161
PHNY 161556Z AUTO 01003KT 10SM FEW035 16/16 A2987 RMK AO2 SLP103 P0001 T01610161
PHNY 161549Z AUTO 01004KT 10SM FEW005 16/16 A2987 RMK AO2 P0001
PHNY 161519Z AUTO 01005KT 5SM BR OVC005 17/17 A2987 RMK AO2 CIG 002V010
PHNY 161456Z AUTO 00000KT 10SM OVC003 17/17 A2987 RMK AO2 RAE16 SLP100 P0001 60003 T01720167 56004
PHNY 161443Z AUTO 00000KT 2SM BR OVC003 17/17 A2986 RMK AO2 VIS 1/2V5 RAE16 CIG 001V004 P0001
PHNY 161431Z AUTO 30003KT 1SM BR BKN003 OVC006 17/17 A2986 RMK AO2 RAE16 CIG 001V004 P0000
PHNY 161414Z AUTO 27004KT 1/2SM -RA FG BKN003 OVC008 17/17 A2987 RMK AO2 CIG 001V005 P0000
PHNY 161400Z AUTO 27006KT 3/4SM -RA BR BKN003 OVC008 17/17 A2987 RMK AO2 CIG 001V006 P0000
PHNY 161356Z AUTO 28006KT 1 1/4SM -RA BR OVC003 17/17 A2987 RMK AO2 CIG 001V008 SLP101 P0001 T01720167
PHNY 161354Z AUTO 27005KT 1 1/4SM -RA BR OVC003 17/17 A2987 RMK AO2 CIG 001V008 P0001
PHNY 161346Z AUTO 27005KT 3/4SM -RA BR BKN003 OVC008 17/17 A2987 RMK AO2 P0001
PHNY 161334Z AUTO 27009KT 1 1/4SM -RA BR OVC003 17/17 A2988 RMK AO2 VIS 3/4V5 P0000
PHNY 161324Z AUTO 29010KT 3/4SM -RA BR BKN003 OVC008 17/17 A2987 RMK AO2 CIG 001V007 P0000
PHNY 161306Z AUTO 28011KT 1 1/4SM -RA BR OVC003 17/17 A2988 RMK AO2 CIG 002V007 P0000
PHNY 161256Z AUTO 28009KT 3/4SM -RA BR BKN003 OVC009 17/17 A2988 RMK AO2 RAB05 SLP103 P0001 T01720167
PHNY 161214Z AUTO 24010KT 3/4SM -RA BR BKN003 BKN007 OVC013 17/17 A2989 RMK AO2 RAB05 P0000
PHNY 161205Z AUTO 28005KT 1 1/4SM -RA BR OVC005 17/17 A2989 RMK AO2 RAB05 CIG 002V008 P0000
PHNY 161200Z AUTO 28005KT 3/4SM BR OVC005 17/17 A2989 RMK AO2 CIG 002V008
PHNY 161156Z AUTO 27004KT 1SM BR BKN005 OVC008 17/16 A2990 RMK AO2 RAB01E13B30E56 SLP111 P0001 60002 70004 T01670161 10172 20167 58010
PHNY 161138Z AUTO 00000KT 2 1/2SM -RA BR BKN005 BKN010 OVC015 17/16 A2991 RMK AO2 RAB01E13B30 CIG 003V007 P0000
PHNY 161108Z AUTO 34004KT 5SM -RA BR FEW007 BKN014 OVC027 17/16 A2991 RMK AO2 RAB01 P0000
PHNY 161056Z AUTO 34005KT 10SM BKN025 BKN033 OVC060 17/16 A2992 RMK AO2 RAB18E48 SLP118 P0001 T01670161
PHNY 161054Z AUTO 34005KT 10SM FEW002 BKN028 OVC047 17/16 A2992 RMK AO2 RAB18E48 P0001
PHNY 161038Z AUTO 33004KT 8SM -RA SCT008 BKN035 OVC048 17/16 A2992 RMK AO2 RAB18 P0001
PHNY 161023Z AUTO 33009KT 6SM -RA BR FEW008 BKN014 BKN037 17/16 A2993 RMK AO2 RAB18 P0001
PHNY 161006Z AUTO 36005KT 10SM SCT014 SCT024 17/16 A2993 RMK AO2
PHNY 160956Z AUTO 34004KT 10SM SCT006 BKN014 OVC023 17/16 A2993 RMK AO2 RAB27E44 SLP120 P0000 T01670161 402170156
PHNY 160931Z AUTO 35006KT 6SM -RA BR FEW008 BKN012 BKN024 17/16 A2994 RMK AO2 RAB27 P0000
PHNY 160856Z AUTO 35006KT 10SM OVC085 17/16 A2994 RMK AO2 RAB11E24 SLP124 P0000 60000 T01670156 50003
PHNY 160756Z AUTO 35010KT 9SM FEW017 SCT028 BKN085 17/15 A2995 RMK AO2 SLP128 T01720150
PHNY 160656Z AUTO 36009KT 10SM FEW027 BKN080 BKN090 17/15 A2994 RMK AO2 SLP127 T01670150
PHNY 160556Z AUTO 36008KT 10SM CLR 17/15 A2993 RMK AO2 SLP124 T01670150 10211 20167 53011
PHNY 160456Z AUTO 36010KT 10SM CLR 17/14 A2991 RMK AO2 SLP119 T01720144
PHNY 160356Z AUTO 01008KT 10SM CLR 18/14 A2990 RMK AO2 SLP112 T01780139
PHNY 160256Z AUTO 35010KT 10SM CLR 19/14 A2990 RMK AO2 SLP111 T01890139 55008
PHNY 160056Z AUTO 01013KT 10SM BKN085 21/14 A2990 RMK AO2 SLP109 T02060139
PHNY 152356Z AUTO VRB04KT 10SM SCT030 BKN036 20/13 A2992 RMK AO2 RAB2259E20 SLP118 P0000 60002 T02000133 10217 20156 58017
PHNY 152325Z AUTO 35008KT 10SM FEW025 SCT044 SCT055 20/15 A2993 RMK AO2 RAB2259E20 P0000
PHNY 152256Z AUTO 33008KT 10SM OVC025 18/14 A2995 RMK AO2 RAB26E52 SLP130 P0000 T01830144
PHNY 152252Z AUTO 35010KT 10SM BKN025 OVC033 18/15 A2995 RMK AO2 RAB26E52 P0000
PHNY 152156Z AUTO 03014G25KT 10SM FEW055 21/13 A2997 RMK AO2 SLP134 T02110133
PHNY 152056Z AUTO 04016G22KT 10SM FEW034 21/14 A2999 RMK AO2 SLP143 P0001 60002 T02060139 58003
PHNY 151956Z AUTO 03014KT 10SM FEW023 19/14 A3001 RMK AO2 RAE00 SLP150 P0001 T01890139
PHNY 151856Z AUTO 04013KT 10SM -RA FEW024 SCT030 BKN041 16/13 A3001 RMK AO2 RAB29 SLP153 P0000 T01610133
PHNY 151756Z AUTO 02013KT 10SM FEW020 SCT038 BKN045 18/14 A3000 RMK AO2 SLP148 60000 T01780139 10178 20161 53014
PHNY 151656Z AUTO 03015KT 10SM FEW026 BKN060 17/13 A2998 RMK AO2 SLP141 T01670128
PHNY 151556Z AUTO 02014G21KT 10SM FEW030 OVC060 17/12 A2998 RMK AO2 SLP139 T01670122
PHNY 151456Z AUTO 02019G28KT 10SM FEW019 BKN050 OVC060 16/13 A2996 RMK AO2 PK WND 02028/1451 SLP134 60000 T01610128 55006
PHNY 151356Z AUTO 03019G24KT 10SM SCT055 17/12 A2996 RMK AO2 SLP132 T01670122
PHNY 151256Z AUTO 02015G23KT 10SM SCT026 SCT037 BKN049 17/12 A2998 RMK AO2 RAB16E36 SLP138 P0000 T01670122
PHNY 151254Z AUTO 03014G23KT 10SM FEW026 SCT035 BKN049 17/12 A2998 RMK AO2 RAB16E36 P0000
PHNY 151232Z AUTO 03015G19KT 10SM -RA SCT022 BKN028 OVC036 17/12 A2998 RMK AO2 RAB16 P0000
PHNY 151156Z AUTO 03019G25KT 10SM FEW029 SCT037 BKN047 17/12 A3000 RMK AO2 PK WND 03027/1141 SLP145 60000 T01720117 10178 20167 58020
PHNY 151056Z AUTO 03015KT 10SM CLR 17/10 A3002 RMK AO2 SLP152 T01670100
PHNY 150956Z AUTO 03015KT 10SM OVC034 17/11 A3005 RMK AO2 PK WND 03027/0928 RAE03 SLP160 P0000 T01720111 402110161
PHNY 150908Z AUTO 03020G25KT 10SM FEW020 BKN036 OVC044 17/12 A3006 RMK AO2 RAE03 P0000
PHNY 150856Z AUTO 02017G26KT 10SM -RA SCT022 BKN029 OVC044 17/13 A3006 RMK AO2 PK WND 03030/0824 RAB53 SLP166 P0000 60000 T01670128 58003
PHNY 150853Z AUTO 04017G26KT 10SM -RA SCT022 BKN029 OVC045 17/13 A3006 RMK AO2 PK WND 03030/0824 RAB53 P0000